Terminal Aerodrome Forecast
Issued by NWS

Home | Current Version | Previous Version | Text Only | Print | Product List | Glossary On
Versions: 1 2 3 4 5 6 7 8 9 10 11 12 13 14 15 16 17 18 19 20 21 22 23 24 25
000
FTAK31 PAFA 031128
TAFASC
TAF
PASC 031128Z 0312/0412 11012KT 1/2SM FZFG VV002
     FM031800 08005KT 4SM BR SCT002 OVC007
     FM032000 10010KT P6SM OVC007
     FM040400 33005KT 4SM BR OVC004
     FM040700 28005KT 1SM BR OVC004=

USA.gov is the U.S. government's official web portal to all federal, state and local government web resources and services.